Time;durP1;ratioP1;P1;durP2;ratioP2;P2;SDS_P1;SDS_P2;PMS_P1;PMS_P2;Temp;Humidity;BMP_temperature;BMP_pressure;BME280_temperature;BME280_humidity;BME280_pressure;Samples;Min_cycle;Max_cycle;Signal;HPM_P1;HPM_P2
2021/09/24 00:00:19;;;;;;;3.63;0.95;;;15.70;99.90;;;;;;6001634;23;20011;-93
2021/09/24 00:02:44;;;;;;;4.20;0.98;;;15.60;99.90;;;;;;6001792;23;20035;-93
2021/09/24 00:05:10;;;;;;;8.00;1.33;;;15.60;99.90;;;;;;6025130;23;20019;-94
2021/09/24 00:07:36;;;;;;;5.15;1.20;;;15.70;99.90;;;;;;6001231;23;20019;-94
2021/09/24 00:10:07;;;;;;;3.30;1.08;;;15.70;99.90;;;;;;6024891;23;20008;-92
2021/09/24 00:12:33;;;;;;;2.60;0.85;;;15.60;99.90;;;;;;6001628;23;20012;-95
2021/09/24 00:14:59;;;;;;;5.00;0.90;;;15.60;99.90;;;;;;6001202;23;20095;-93
2021/09/24 00:17:25;;;;;;;3.22;0.75;;;15.60;99.90;;;;;;6001344;23;20008;-93
2021/09/24 00:19:51;;;;;;;4.18;0.80;;;15.60;99.90;;;;;;6025046;23;20015;-93
2021/09/24 00:22:16;;;;;;;2.60;0.70;;;15.60;99.90;;;;;;6001693;23;20019;-92
2021/09/24 00:24:42;;;;;;;4.03;0.88;;;15.60;99.90;;;;;;6024843;23;20016;-92
2021/09/24 00:27:08;;;;;;;5.78;1.20;;;15.60;99.90;;;;;;6024621;23;20012;-93
2021/09/24 00:29:33;;;;;;;4.70;1.10;;;15.60;99.90;;;;;;6001309;23;20092;-92
2021/09/24 00:31:59;;;;;;;6.68;1.30;;;15.60;99.90;;;;;;6000986;23;20023;-92
2021/09/24 00:34:24;;;;;;;5.28;1.58;;;15.60;99.90;;;;;;6001056;23;20039;-92
2021/09/24 00:36:50;;;;;;;7.38;1.33;;;15.60;99.90;;;;;;6001539;23;20008;-93
2021/09/24 00:39:16;;;;;;;3.63;1.30;;;15.60;99.90;;;;;;6024902;23;20008;-93
2021/09/24 00:41:42;;;;;;;4.80;1.35;;;15.60;99.90;;;;;;6024663;23;20484;-92
2021/09/24 00:44:07;;;;;;;5.75;1.52;;;15.60;99.90;;;;;;6000987;23;20030;-91
2021/09/24 00:46:33;;;;;;;7.03;2.00;;;15.60;99.90;;;;;;6001663;23;20068;-93
2021/09/24 00:49:00;;;;;;;7.10;1.98;;;15.60;99.90;;;;;;6001434;23;20084;-93
2021/09/24 00:51:25;;;;;;;7.85;2.80;;;15.60;99.90;;;;;;6001787;23;20012;-94
2021/09/24 00:53:52;;;;;;;8.50;3.80;;;15.60;99.90;;;;;;6024815;23;20441;-92
2021/09/24 00:56:19;;;;;;;5.95;3.13;;;15.60;99.90;;;;;;6001165;23;20067;-92
2021/09/24 00:58:45;;;;;;;6.38;2.58;;;15.60;99.90;;;;;;6024786;23;20064;-92
2021/09/24 01:01:10;;;;;;;6.35;2.33;;;15.60;99.90;;;;;;6001251;23;20008;-91
2021/09/24 01:03:36;;;;;;;10.38;4.07;;;15.60;99.90;;;;;;6001333;23;20215;-92
2021/09/24 01:06:02;;;;;;;10.15;3.97;;;15.60;99.90;;;;;;6001052;23;20012;-93
2021/09/24 01:08:31;;;;;;;7.97;3.55;;;15.60;99.90;;;;;;6024484;23;20020;-93
2021/09/24 01:10:57;;;;;;;8.43;3.50;;;15.60;99.90;;;;;;6024655;23;20520;-93
2021/09/24 01:13:23;;;;;;;10.73;4.50;;;15.60;99.90;;;;;;6024506;23;20037;-93
2021/09/24 01:15:48;;;;;;;11.75;5.20;;;15.60;99.90;;;;;;6024287;23;20064;-92
2021/09/24 01:18:14;;;;;;;7.47;3.25;;;15.60;99.90;;;;;;6001043;23;20046;-92
2021/09/24 01:20:40;;;;;;;7.82;2.42;;;15.60;99.90;;;;;;6000938;23;20436;-93
2021/09/24 01:23:06;;;;;;;6.38;2.42;;;15.60;99.90;;;;;;6001226;23;20019;-93
2021/09/24 01:25:32;;;;;;;6.13;2.40;;;15.60;99.90;;;;;;6001210;23;20064;-92
2021/09/24 01:27:58;;;;;;;9.10;2.50;;;15.60;99.90;;;;;;6001064;23;20030;-95
2021/09/24 01:30:24;;;;;;;4.50;1.65;;;15.60;99.90;;;;;;6000790;23;20010;-93
2021/09/24 01:32:50;;;;;;;4.57;1.85;;;15.50;99.90;;;;;;6000654;23;20464;-92
2021/09/24 01:35:16;;;;;;;4.78;2.13;;;15.50;99.90;;;;;;6000841;23;20008;-92
2021/09/24 01:37:42;;;;;;;5.30;1.35;;;15.50;99.90;;;;;;6000736;23;20015;-95
2021/09/24 01:40:15;;;;;;;6.63;1.73;;;15.50;99.90;;;;;;6000709;23;20034;-92
2021/09/24 01:42:42;;;;;;;5.45;2.05;;;15.50;99.90;;;;;;6001155;23;20060;-92
2021/09/24 01:45:09;;;;;;;4.78;1.35;;;15.50;99.90;;;;;;6000425;23;20016;-93
2021/09/24 01:47:35;;;;;;;6.90;1.80;;;15.50;99.90;;;;;;6000587;23;20040;-93
2021/09/24 01:50:00;;;;;;;4.50;1.50;;;15.50;99.90;;;;;;6000715;23;20012;-92
2021/09/24 01:52:26;;;;;;;5.35;1.10;;;15.50;99.90;;;;;;6000799;23;20451;-94
2021/09/24 01:54:52;;;;;;;5.90;1.58;;;15.50;99.90;;;;;;6000936;23;20067;-92
2021/09/24 01:57:17;;;;;;;7.50;1.75;;;15.50;99.90;;;;;;6000419;23;20012;-93
2021/09/24 01:59:43;;;;;;;5.18;1.70;;;15.40;99.90;;;;;;6000869;23;20015;-92
2021/09/24 02:02:09;;;;;;;3.55;0.77;;;15.40;99.90;;;;;;6000463;23;20140;-93
2021/09/24 02:04:34;;;;;;;10.18;1.23;;;15.40;99.90;;;;;;6000974;23;20011;-93
2021/09/24 02:07:00;;;;;;;8.20;1.40;;;15.40;99.90;;;;;;6024340;23;20004;-94
2021/09/24 02:09:25;;;;;;;4.68;1.77;;;15.40;99.90;;;;;;6000883;23;20098;-92
2021/09/24 02:11:51;;;;;;;8.27;1.52;;;15.40;99.90;;;;;;6000742;23;20008;-94
2021/09/24 02:14:17;;;;;;;7.28;1.45;;;15.30;99.90;;;;;;6000859;23;20027;-94
2021/09/24 02:16:43;;;;;;;4.68;0.85;;;15.40;99.90;;;;;;6000732;23;20019;-92
2021/09/24 02:19:09;;;;;;;6.40;1.15;;;15.40;99.90;;;;;;6000396;23;20015;-93
2021/09/24 02:21:34;;;;;;;3.05;0.98;;;15.40;99.90;;;;;;6023972;23;20018;-93
2021/09/24 02:24:00;;;;;;;5.43;0.70;;;15.40;99.90;;;;;;6000435;23;20453;-92
2021/09/24 02:26:26;;;;;;;5.50;1.00;;;15.40;99.90;;;;;;6024080;23;20014;-93
2021/09/24 02:28:51;;;;;;;6.07;1.13;;;15.40;99.90;;;;;;6000610;23;20508;-93
2021/09/24 02:31:17;;;;;;;4.57;0.90;;;15.40;99.90;;;;;;6000508;23;20114;-95
2021/09/24 02:33:44;;;;;;;3.40;1.10;;;15.30;99.90;;;;;;6000464;23;20012;-93
2021/09/24 02:36:10;;;;;;;4.00;0.75;;;15.40;99.90;;;;;;6000599;23;20067;-92
2021/09/24 02:38:36;;;;;;;3.72;0.77;;;15.30;99.90;;;;;;6000584;23;20012;-94
2021/09/24 02:41:03;;;;;;;3.53;0.77;;;15.40;99.90;;;;;;6000338;23;20030;-93
2021/09/24 02:43:29;;;;;;;5.75;0.82;;;15.30;99.90;;;;;;6000353;23;20016;-92
2021/09/24 02:45:54;;;;;;;4.18;0.77;;;15.40;99.90;;;;;;6023694;23;20004;-94
2021/09/24 02:48:20;;;;;;;4.68;0.80;;;15.30;99.90;;;;;;6000303;23;20097;-92
2021/09/24 02:50:46;;;;;;;9.00;1.00;;;15.30;99.90;;;;;;6024093;23;20040;-94
2021/09/24 02:53:12;;;;;;;3.92;0.70;;;15.30;99.90;;;;;;6000138;23;20027;-92
2021/09/24 02:55:38;;;;;;;5.75;0.90;;;15.30;99.90;;;;;;6000630;23;20007;-92
2021/09/24 02:58:04;;;;;;;4.22;0.75;;;15.30;99.90;;;;;;6002053;23;20045;-93
2021/09/24 03:00:30;;;;;;;3.00;0.70;;;15.30;99.90;;;;;;6002597;23;20012;-94
2021/09/24 03:02:56;;;;;;;5.40;0.70;;;15.30;99.90;;;;;;6002258;23;20015;-91
2021/09/24 03:05:22;;;;;;;5.53;0.63;;;15.30;99.90;;;;;;6002632;23;20008;-92
2021/09/24 03:07:47;;;;;;;4.15;0.60;;;15.30;99.90;;;;;;6025690;23;20028;-93
2021/09/24 03:10:13;;;;;;;4.18;1.25;;;15.30;99.90;;;;;;6002167;23;20008;-92
2021/09/24 03:12:39;;;;;;;4.82;0.70;;;15.30;99.90;;;;;;6002448;23;20007;-92
2021/09/24 03:15:07;;;;;;;4.13;1.40;;;15.30;99.90;;;;;;6002102;23;20040;-92
2021/09/24 03:17:33;;;;;;;3.55;0.93;;;15.30;99.90;;;;;;6001718;23;20011;-92
2021/09/24 03:19:59;;;;;;;3.13;0.80;;;15.30;99.90;;;;;;6001972;23;20012;-94
2021/09/24 03:22:24;;;;;;;4.68;0.90;;;15.30;99.90;;;;;;6002154;23;20059;-93
2021/09/24 03:24:50;;;;;;;5.10;0.98;;;15.30;99.90;;;;;;6002477;23;20019;-94
2021/09/24 03:27:16;;;;;;;2.20;0.60;;;15.30;99.90;;;;;;6001959;23;20019;-94
2021/09/24 03:29:42;;;;;;;2.40;0.70;;;15.30;99.90;;;;;;6002181;23;20090;-93
2021/09/24 03:32:07;;;;;;;2.92;0.70;;;15.20;99.90;;;;;;6001462;23;20019;-93
2021/09/24 03:34:33;;;;;;;3.28;0.65;;;15.30;99.90;;;;;;6001851;23;20382;-92
2021/09/24 03:36:59;;;;;;;3.15;0.70;;;15.20;99.90;;;;;;6001535;23;20038;-93
2021/09/24 03:39:24;;;;;;;2.30;0.60;;;15.30;99.90;;;;;;6025447;23;20426;-92
2021/09/24 03:41:54;;;;;;;2.45;0.75;;;15.20;99.90;;;;;;6025590;23;20402;-93
2021/09/24 03:44:40;;;;;;;6.18;0.95;;;15.20;99.90;;;;;;6001855;23;20007;-91
2021/09/24 03:47:05;;;;;;;3.88;0.70;;;15.20;99.90;;;;;;5917091;24;20009;-92
2021/09/24 03:49:31;;;;;;;3.20;0.70;;;15.10;99.90;;;;;;5917130;24;20048;-92
2021/09/24 03:51:58;;;;;;;3.00;0.63;;;15.10;99.90;;;;;;5917645;24;20013;-93
2021/09/24 03:54:24;;;;;;;2.10;0.70;;;15.10;99.90;;;;;;5917350;24;20029;-92
2021/09/24 03:56:49;;;;;;;4.63;0.70;;;15.10;99.90;;;;;;5894409;24;20047;-92
2021/09/24 03:59:15;;;;;;;3.03;0.80;;;15.00;99.90;;;;;;5917363;24;20010;-92
2021/09/24 04:01:41;;;;;;;2.72;0.80;;;15.10;99.90;;;;;;5917309;24;20016;-93
2021/09/24 04:04:06;;;;;;;4.95;0.75;;;15.00;99.90;;;;;;5917278;24;20076;-92
2021/09/24 04:06:32;;;;;;;8.85;0.80;;;15.00;99.90;;;;;;5916998;24;20017;-92
2021/09/24 04:08:58;;;;;;;2.70;1.20;;;15.00;99.90;;;;;;5917027;24;20081;-92
2021/09/24 04:11:24;;;;;;;3.13;1.17;;;15.00;99.90;;;;;;5917312;24;20005;-92
2021/09/24 04:13:49;;;;;;;3.38;1.20;;;15.00;99.90;;;;;;5896021;24;20013;-94
2021/09/24 04:16:15;;;;;;;4.13;1.40;;;14.90;99.90;;;;;;5918629;24;20009;-91
2021/09/24 04:18:41;;;;;;;3.22;1.48;;;15.00;99.90;;;;;;5941476;24;20013;-94
2021/09/24 04:21:07;;;;;;;2.90;1.17;;;15.00;99.90;;;;;;5894742;24;20017;-93
2021/09/24 04:23:33;;;;;;;3.22;1.10;;;15.00;99.90;;;;;;5938558;23;20011;-93
2021/09/24 04:25:59;;;;;;;4.97;2.15;;;15.00;99.90;;;;;;6024886;23;20064;-93
2021/09/24 04:28:25;;;;;;;4.05;2.20;;;15.00;99.90;;;;;;6000982;23;20024;-93
2021/09/24 04:30:50;;;;;;;5.38;2.20;;;15.00;99.90;;;;;;6024860;23;20026;-93
2021/09/24 04:33:16;;;;;;;6.30;2.67;;;15.00;99.90;;;;;;6001454;23;20012;-93
2021/09/24 04:35:42;;;;;;;6.72;2.90;;;14.90;99.90;;;;;;6001506;23;20018;-93
2021/09/24 04:38:07;;;;;;;6.03;3.30;;;15.00;99.90;;;;;;6024476;23;20437;-94
2021/09/24 04:40:33;;;;;;;6.03;3.58;;;14.90;99.90;;;;;;6001233;23;20008;-93
2021/09/24 04:43:00;;;;;;;7.03;4.35;;;15.00;99.90;;;;;;6001063;23;20007;-93
2021/09/24 04:45:26;;;;;;;7.18;5.05;;;15.00;99.90;;;;;;6024715;23;20032;-92
2021/09/24 04:47:51;;;;;;;9.38;4.93;;;15.00;99.90;;;;;;6024646;23;20019;-94
2021/09/24 04:50:17;;;;;;;6.93;4.45;;;15.00;99.90;;;;;;6001176;23;20019;-93
2021/09/24 04:52:43;;;;;;;8.57;5.65;;;15.00;99.90;;;;;;6001077;23;20493;-92
2021/09/24 04:55:09;;;;;;;10.93;7.22;;;15.00;99.90;;;;;;6001063;23;20023;-93
2021/09/24 04:57:36;;;;;;;9.55;8.10;;;15.00;99.90;;;;;;6001313;23;20012;-92
2021/09/24 05:00:05;;;;;;;14.60;9.43;;;14.90;99.90;;;;;;6024533;23;20015;-91
2021/09/24 05:02:31;;;;;;;24.52;13.95;;;14.90;99.90;;;;;;6001587;23;20085;-92
2021/09/24 05:04:56;;;;;;;24.77;13.70;;;15.00;99.90;;;;;;6001276;23;20016;-94
2021/09/24 05:07:22;;;;;;;22.67;13.48;;;14.90;99.90;;;;;;6000917;23;20012;-94
2021/09/24 05:09:48;;;;;;;26.80;17.58;;;14.90;99.90;;;;;;6000990;23;20035;-93
2021/09/24 05:12:13;;;;;;;23.52;17.17;;;15.00;99.90;;;;;;6001376;23;20004;-93
2021/09/24 05:14:39;;;;;;;25.00;15.50;;;15.00;99.90;;;;;;6000792;23;20030;-91
2021/09/24 05:17:05;;;;;;;23.35;14.57;;;15.00;99.90;;;;;;6025051;23;20040;-95
2021/09/24 05:19:30;;;;;;;27.83;17.05;;;15.10;99.90;;;;;;6001102;23;20040;-94
2021/09/24 05:21:56;;;;;;;33.55;18.50;;;15.10;99.90;;;;;;6000827;23;20035;-93
2021/09/24 05:24:22;;;;;;;30.90;17.75;;;15.10;99.90;;;;;;6000599;23;20063;-93
2021/09/24 05:26:48;;;;;;;38.25;21.80;;;15.10;99.90;;;;;;5999018;23;20022;-93
2021/09/24 05:29:13;;;;;;;32.20;18.00;;;15.20;99.90;;;;;;6024317;23;20022;-93
2021/09/24 05:31:39;;;;;;;30.90;17.73;;;15.10;99.90;;;;;;5987267;24;20342;-93
2021/09/24 05:34:05;;;;;;;29.58;17.30;;;15.20;99.90;;;;;;5996066;24;20015;-94
2021/09/24 05:36:31;;;;;;;30.42;17.10;;;15.20;99.90;;;;;;5972817;24;20434;-93
2021/09/24 05:38:57;;;;;;;25.85;15.68;;;15.20;99.90;;;;;;5972835;24;20020;-93
2021/09/24 05:41:24;;;;;;;32.70;16.38;;;15.30;99.90;;;;;;5995790;24;20015;-93
2021/09/24 05:43:50;;;;;;;35.42;18.77;;;15.30;99.90;;;;;;5972883;24;20017;-94
2021/09/24 05:46:18;;;;;;;30.42;18.08;;;15.40;99.90;;;;;;5972517;24;20012;-93
2021/09/24 05:48:44;;;;;;;31.45;17.15;;;15.30;99.90;;;;;;5972229;24;20020;-93
2021/09/24 05:51:10;;;;;;;33.85;18.70;;;15.40;99.90;;;;;;5972406;24;20008;-90
2021/09/24 05:53:35;;;;;;;35.22;17.83;;;15.40;99.90;;;;;;5995863;24;20012;-91
2021/09/24 05:56:02;;;;;;;34.17;19.10;;;15.40;99.90;;;;;;5972142;24;20008;-92
2021/09/24 05:58:28;;;;;;;35.92;20.25;;;15.50;99.90;;;;;;5995830;24;20012;-91
2021/09/24 06:00:53;;;;;;;34.17;19.05;;;15.50;99.90;;;;;;5972758;24;20040;-92
2021/09/24 06:03:19;;;;;;;35.65;18.65;;;15.50;99.90;;;;;;5973731;24;20004;-92
2021/09/24 06:05:45;;;;;;;37.65;19.38;;;15.60;99.90;;;;;;5972426;24;20460;-92
2021/09/24 06:08:10;;;;;;;36.42;19.63;;;15.60;99.90;;;;;;5971989;24;20016;-91
2021/09/24 06:10:38;;;;;;;32.00;18.48;;;15.50;99.90;;;;;;5995083;24;20069;-91
2021/09/24 06:13:05;;;;;;;35.85;19.00;;;15.60;99.90;;;;;;5994916;24;20012;-91
2021/09/24 06:15:31;;;;;;;39.65;19.55;;;15.60;99.90;;;;;;5994592;24;20010;-91
2021/09/24 06:17:57;;;;;;;33.80;18.27;;;15.60;99.90;;;;;;5994606;24;20111;-91
2021/09/24 06:20:22;;;;;;;34.25;18.15;;;15.70;99.90;;;;;;5971494;24;20357;-92
2021/09/24 06:22:49;;;;;;;40.78;20.48;;;15.70;99.90;;;;;;5994598;24;20043;-91
2021/09/24 06:25:16;;;;;;;33.13;18.65;;;15.70;99.90;;;;;;5971504;24;20015;-92
2021/09/24 06:27:43;;;;;;;32.17;19.77;;;15.70;99.90;;;;;;5994410;24;20027;-92
2021/09/24 06:30:12;;;;;;;43.15;21.40;;;15.80;99.90;;;;;;5971243;24;20012;-92
2021/09/24 06:32:38;;;;;;;45.80;23.20;;;15.80;99.90;;;;;;5994671;23;20020;-91
2021/09/24 06:35:05;;;;;;;42.05;21.88;;;15.80;99.90;;;;;;5971458;24;20027;-93
2021/09/24 06:37:31;;;;;;;43.13;24.00;;;15.80;99.90;;;;;;5994623;24;20004;-91
2021/09/24 06:39:57;;;;;;;42.00;21.90;;;15.80;99.90;;;;;;5969341;24;20083;-91
2021/09/24 06:42:22;;;;;;;31.50;17.02;;;15.80;99.90;;;;;;5969441;24;20013;-92
2021/09/24 06:44:48;;;;;;;38.70;20.55;;;15.80;99.90;;;;;;5969888;24;20012;-89
2021/09/24 06:47:16;;;;;;;40.95;22.90;;;15.80;99.90;;;;;;5994313;24;20012;-92
2021/09/24 06:49:42;;;;;;;43.45;22.67;;;15.80;99.90;;;;;;5995371;24;20040;-92
2021/09/24 06:52:08;;;;;;;43.33;22.38;;;15.80;99.90;;;;;;5971653;24;20021;-91
2021/09/24 06:54:34;;;;;;;42.78;21.80;;;15.80;99.90;;;;;;5929823;24;20024;-92
2021/09/24 06:57:00;;;;;;;35.90;19.42;;;15.80;99.90;;;;;;5992617;24;20013;-92
2021/09/24 06:59:26;;;;;;;39.75;21.15;;;15.80;99.90;;;;;;5971029;24;20008;-91
2021/09/24 07:01:52;;;;;;;35.28;19.05;;;15.90;99.90;;;;;;5971372;24;20012;-92
2021/09/24 07:04:18;;;;;;;40.20;22.42;;;15.90;99.90;;;;;;5971211;24;20012;-90
2021/09/24 07:06:45;;;;;;;43.97;22.38;;;15.90;99.90;;;;;;5971080;24;20012;-92
2021/09/24 07:09:11;;;;;;;36.45;19.27;;;15.90;99.90;;;;;;5994494;24;20031;-90
2021/09/24 07:11:37;;;;;;;43.70;22.45;;;15.90;99.90;;;;;;5993671;24;20004;-90
2021/09/24 07:14:08;;;;;;;33.70;20.20;;;15.90;99.90;;;;;;5971195;24;20012;-91
2021/09/24 07:16:37;;;;;;;33.08;18.45;;;15.90;99.90;;;;;;5970998;24;20016;-89
2021/09/24 07:19:03;;;;;;;30.83;17.95;;;15.90;99.90;;;;;;5970624;24;20064;-90
2021/09/24 07:21:29;;;;;;;30.02;17.77;;;16.00;99.90;;;;;;5964673;24;20016;-89
2021/09/24 07:23:54;;;;;;;34.53;18.67;;;16.00;99.90;;;;;;5991460;24;20022;-89
2021/09/24 07:26:20;;;;;;;42.38;22.70;;;16.00;99.90;;;;;;5992970;24;20024;-89
2021/09/24 07:28:46;;;;;;;37.22;19.45;;;16.00;99.90;;;;;;5970716;24;20024;-90
2021/09/24 07:31:12;;;;;;;34.20;18.50;;;16.00;99.90;;;;;;5993845;23;20054;-90
2021/09/24 07:33:38;;;;;;;41.78;20.08;;;16.10;99.90;;;;;;5969877;24;20004;-90
2021/09/24 07:36:04;;;;;;;37.88;19.63;;;16.10;99.90;;;;;;5994173;24;20091;-90
2021/09/24 07:38:30;;;;;;;40.05;20.13;;;16.10;99.90;;;;;;5993661;24;20398;-89
2021/09/24 07:40:56;;;;;;;42.70;20.30;;;16.10;99.90;;;;;;5993566;24;20008;-90
2021/09/24 07:43:22;;;;;;;35.25;18.05;;;16.10;99.90;;;;;;5972117;24;20019;-91
2021/09/24 07:45:47;;;;;;;37.90;18.38;;;16.20;99.90;;;;;;5972296;24;20012;-90
2021/09/24 07:48:13;;;;;;;39.40;19.55;;;16.20;99.90;;;;;;5972565;24;20450;-90
2021/09/24 07:50:39;;;;;;;43.75;20.42;;;16.30;99.90;;;;;;5995676;24;20012;-90
2021/09/24 07:53:05;;;;;;;43.72;20.30;;;16.20;99.90;;;;;;5994390;24;20080;-88
2021/09/24 07:55:31;;;;;;;43.45;21.15;;;16.30;99.90;;;;;;5931221;23;20107;-89
2021/09/24 07:57:57;;;;;;;36.45;17.17;;;16.30;99.90;;;;;;5966889;24;20008;-89
2021/09/24 08:00:30;;;;;;;42.33;21.67;;;16.30;99.90;;;;;;5941406;24;20020;-91
2021/09/24 08:03:07;;;;;;;43.85;19.98;;;16.30;99.90;;;;;;5966897;24;20028;-91
2021/09/24 08:05:33;;;;;;;49.83;23.30;;;16.20;99.90;;;;;;5967036;24;20032;-89
2021/09/24 08:07:59;;;;;;;39.65;18.67;;;16.30;99.90;;;;;;5967522;24;20017;-91
2021/09/24 08:10:25;;;;;;;42.40;20.48;;;16.30;99.90;;;;;;5968551;24;20013;-88
2021/09/24 08:12:52;;;;;;;43.83;17.70;;;16.30;99.90;;;;;;5945782;24;20019;-89
2021/09/24 08:15:18;;;;;;;40.95;19.33;;;16.40;99.90;;;;;;5945691;24;20025;-90
2021/09/24 08:17:44;;;;;;;39.88;18.00;;;16.40;99.90;;;;;;5945158;24;20057;-92
2021/09/24 08:20:11;;;;;;;44.60;22.27;;;16.50;99.90;;;;;;5946184;24;20016;-91
2021/09/24 08:22:40;;;;;;;46.05;22.90;;;16.50;99.90;;;;;;5969171;24;20067;-93
2021/09/24 08:25:08;;;;;;;39.50;19.13;;;16.40;99.90;;;;;;5968903;24;20343;-93
2021/09/24 08:27:34;;;;;;;48.20;23.08;;;16.50;99.90;;;;;;5967934;24;20270;-91
2021/09/24 08:30:01;;;;;;;49.35;22.95;;;16.40;99.90;;;;;;5945388;24;20015;-91
2021/09/24 08:32:27;;;;;;;42.15;20.80;;;16.40;99.90;;;;;;5990602;24;20031;-91
2021/09/24 08:34:52;;;;;;;35.53;16.35;;;16.50;99.90;;;;;;5973093;24;20012;-90
2021/09/24 08:37:18;;;;;;;41.33;19.80;;;16.60;99.90;;;;;;5996261;24;20013;-90
2021/09/24 08:39:52;;;;;;;41.35;20.27;;;16.60;99.90;;;;;;5972274;24;20028;-91
2021/09/24 08:42:18;;;;;;;43.25;19.77;;;16.70;99.90;;;;;;5995222;24;20016;-91
2021/09/24 08:44:48;;;;;;;37.25;19.30;;;16.70;99.90;;;;;;5995776;24;20032;-92
2021/09/24 08:47:14;;;;;;;36.63;19.15;;;16.70;99.90;;;;;;5972498;24;20095;-92
2021/09/24 08:49:39;;;;;;;36.00;17.15;;;16.70;99.90;;;;;;5972695;24;20457;-92
2021/09/24 08:52:05;;;;;;;35.53;17.55;;;16.80;99.90;;;;;;5972582;24;20004;-91
2021/09/24 08:54:31;;;;;;;36.40;18.15;;;16.90;99.90;;;;;;5995126;24;20012;-92
2021/09/24 08:56:57;;;;;;;40.53;20.40;;;16.90;99.90;;;;;;5972098;24;20016;-92
2021/09/24 08:59:22;;;;;;;39.67;19.55;;;16.90;99.90;;;;;;5972532;24;20008;-92
2021/09/24 09:02:03;;;;;;;31.83;15.43;;;17.00;99.90;;;;;;5995780;24;20016;-93
2021/09/24 09:04:46;;;;;;;34.40;16.52;;;17.10;99.90;;;;;;5972076;24;20012;-91
2021/09/24 09:07:14;;;;;;;31.98;16.85;;;17.20;99.90;;;;;;5972287;24;20008;-92
2021/09/24 09:09:44;;;;;;;34.92;17.58;;;17.20;99.90;;;;;;5972309;24;20096;-92
2021/09/24 09:12:12;;;;;;;31.42;17.08;;;17.30;99.90;;;;;;5972322;24;20008;-91
2021/09/24 09:14:38;;;;;;;37.35;20.23;;;17.50;99.90;;;;;;5972106;24;20016;-92
2021/09/24 09:17:28;;;;;;;37.88;20.20;;;17.60;99.90;;;;;;5995236;24;20008;-92
2021/09/24 09:20:15;;;;;;;39.75;22.98;;;17.70;99.90;;;;;;5995486;24;20020;-93
2021/09/24 09:22:43;;;;;;;37.45;19.48;;;17.70;99.90;;;;;;5972184;24;20027;-93
2021/09/24 09:25:23;;;;;;;38.03;20.05;;;17.70;99.90;;;;;;5972295;24;20012;-93
2021/09/24 09:27:49;;;;;;;28.20;17.75;;;17.80;99.90;;;;;;5994846;24;20058;-93
2021/09/24 09:30:15;;;;;;;30.33;17.60;;;17.80;99.90;;;;;;5995373;24;20015;-92
2021/09/24 09:32:46;;;;;;;27.25;16.52;;;18.20;99.90;;;;;;5995469;24;20036;-93
2021/09/24 09:35:42;;;;;;;27.95;17.60;;;18.30;99.90;;;;;;5995386;24;20009;-93
2021/09/24 09:38:29;;;;;;;28.52;16.63;;;18.40;99.90;;;;;;5995599;24;20020;-94
2021/09/24 09:41:03;;;;;;;30.60;17.48;;;18.50;99.90;;;;;;5972178;24;20071;-92
2021/09/24 09:43:35;;;;;;;35.55;19.27;;;18.40;99.90;;;;;;5995062;24;20371;-92
2021/09/24 09:46:04;;;;;;;39.15;21.67;;;18.60;99.90;;;;;;5972068;24;20404;-93
2021/09/24 09:48:30;;;;;;;33.70;19.98;;;18.70;99.90;;;;;;5995282;24;20016;-91
2021/09/24 09:50:56;;;;;;;38.25;21.90;;;19.00;99.90;;;;;;5995471;24;20015;-93
2021/09/24 09:53:24;;;;;;;43.13;25.45;;;18.80;99.90;;;;;;5972023;24;20012;-92
2021/09/24 09:55:54;;;;;;;27.55;17.98;;;18.60;99.90;;;;;;5972112;24;20072;-91
2021/09/24 09:58:23;;;;;;;33.20;20.67;;;18.90;99.90;;;;;;5972013;24;20012;-91
2021/09/24 10:01:08;;;;;;;23.60;16.33;;;19.00;99.90;;;;;;5995084;24;20449;-93
2021/09/24 10:03:40;;;;;;;23.65;14.93;;;19.20;99.90;;;;;;5995046;24;20032;-92
2021/09/24 10:06:32;;;;;;;24.45;18.23;;;19.30;99.90;;;;;;5971975;24;20012;-95
2021/09/24 10:09:12;;;;;;;24.48;15.43;;;19.50;99.90;;;;;;5995206;24;20048;-94
2021/09/24 10:11:44;;;;;;;22.13;15.20;;;19.70;99.90;;;;;;5995159;24;20004;-92
2021/09/24 10:14:12;;;;;;;31.33;20.83;;;19.70;99.90;;;;;;5971560;24;20008;-92
2021/09/24 10:16:46;;;;;;;27.55;18.55;;;19.40;99.90;;;;;;5971829;24;20019;-92
2021/09/24 10:19:14;;;;;;;23.30;15.35;;;19.60;99.90;;;;;;5994817;24;20068;-91
2021/09/24 10:21:40;;;;;;;27.13;18.25;;;19.40;99.90;;;;;;5994899;24;20016;-91
2021/09/24 10:24:06;;;;;;;25.58;16.75;;;19.10;99.90;;;;;;5994938;24;20016;-93
2021/09/24 10:26:36;;;;;;;25.67;17.27;;;19.40;99.90;;;;;;5971645;24;20087;-90
2021/09/24 10:29:15;;;;;;;23.13;16.98;;;19.70;99.90;;;;;;5971423;24;20073;-92
2021/09/24 10:31:47;;;;;;;31.05;19.55;;;19.60;99.90;;;;;;5967007;24;20064;-92
2021/09/24 10:34:14;;;;;;;28.15;17.80;;;19.50;99.90;;;;;;5967148;24;20046;-93
2021/09/24 10:36:47;;;;;;;25.58;18.10;;;19.90;99.90;;;;;;5943621;24;20016;-91
2021/09/24 10:39:38;;;;;;;25.55;17.77;;;19.50;99.90;;;;;;5966866;24;20072;-90
2021/09/24 10:42:29;;;;;;;20.02;13.77;;;19.50;99.90;;;;;;5966981;24;20013;-94
2021/09/24 10:45:03;;;;;;;16.90;12.48;;;19.90;99.90;;;;;;5943656;24;20012;-91
2021/09/24 10:47:49;;;;;;;22.35;14.55;;;20.10;99.90;;;;;;5966792;24;20036;-90
2021/09/24 10:50:38;;;;;;;16.75;12.52;;;20.00;99.90;;;;;;5966761;24;20013;-95
2021/09/24 10:55:38;;;;;;;25.35;16.75;;;20.00;99.90;;;;;;5966951;24;20012;-90
2021/09/24 10:58:20;;;;;;;21.13;14.38;;;19.70;99.90;;;;;;5966924;24;20012;-95
2021/09/24 11:00:54;;;;;;;26.13;16.73;;;19.70;99.90;;;;;;5966786;24;20032;-91
2021/09/24 11:03:46;;;;;;;20.02;16.05;;;19.80;99.90;;;;;;5967133;24;20012;-94
2021/09/24 11:06:12;;;;;;;19.05;14.73;;;19.80;99.90;;;;;;5966673;24;20023;-90
2021/09/24 11:08:45;;;;;;;34.83;20.27;;;19.90;99.90;;;;;;5967062;24;20025;-92
2021/09/24 11:11:21;;;;;;;22.38;16.58;;;19.50;99.90;;;;;;5966897;24;20016;-93
2021/09/24 11:13:53;;;;;;;28.52;19.45;;;19.60;99.90;;;;;;5920851;24;20343;-91
2021/09/24 11:16:34;;;;;;;28.27;19.83;;;19.60;99.90;;;;;;5966345;24;20008;-92
2021/09/24 11:19:01;;;;;;;27.27;18.63;;;19.70;99.90;;;;;;5968833;24;20020;-90
2021/09/24 11:21:38;;;;;;;30.42;21.15;;;19.60;99.90;;;;;;5945614;24;20028;-93
2021/09/24 11:24:25;;;;;;;28.15;20.40;;;19.50;99.90;;;;;;5968839;24;20036;-93
2021/09/24 11:27:00;;;;;;;28.27;21.38;;;19.60;99.90;;;;;;5968222;24;20016;-94
2021/09/24 11:32:16;;;;;;;26.42;18.25;;;19.60;99.90;;;;;;5967612;24;20024;-93
2021/09/24 11:34:48;;;;;;;27.00;20.30;;;19.70;99.90;;;;;;5945430;24;20012;-93
2021/09/24 11:37:30;;;;;;;26.35;19.40;;;20.00;99.90;;;;;;5945383;24;20032;-93
2021/09/24 11:40:01;;;;;;;20.95;16.73;;;20.20;99.90;;;;;;5945404;24;20004;-92
2021/09/24 11:42:32;;;;;;;20.20;16.08;;;20.30;99.90;;;;;;5945472;24;20091;-91
2021/09/24 11:45:00;;;;;;;21.20;15.68;;;20.60;99.90;;;;;;5945156;24;20064;-91
2021/09/24 11:47:33;;;;;;;22.63;16.50;;;20.30;99.90;;;;;;5968556;24;20040;-95
2021/09/24 11:50:03;;;;;;;25.85;18.90;;;20.10;99.90;;;;;;5968320;24;20021;-95
2021/09/24 11:52:49;;;;;;;26.55;19.92;;;19.90;99.90;;;;;;5945535;24;20294;-93
2021/09/24 11:55:22;;;;;;;23.17;18.38;;;19.90;99.90;;;;;;5969099;24;20013;-95
2021/09/24 11:58:08;;;;;;;22.35;16.98;;;20.20;99.90;;;;;;5945514;24;20017;-93
2021/09/24 12:00:39;;;;;;;19.52;15.20;;;20.50;99.90;;;;;;5968605;24;20013;-94
2021/09/24 12:03:14;;;;;;;30.35;20.90;;;20.60;99.90;;;;;;5968621;24;20038;-95
2021/09/24 12:05:48;;;;;;;25.73;18.20;;;20.20;99.90;;;;;;5945259;24;20020;-92
2021/09/24 12:08:16;;;;;;;23.30;17.35;;;20.10;99.90;;;;;;5945153;24;20383;-91
2021/09/24 12:10:44;;;;;;;24.67;18.40;;;20.00;99.90;;;;;;5944894;24;20073;-93
2021/09/24 12:14:06;;;;;;;18.98;14.95;;;19.90;99.90;;;;;;5968396;24;20096;-91
2021/09/24 12:16:42;;;;;;;18.00;14.50;;;20.00;99.90;;;;;;5967911;24;20023;-91
2021/09/24 12:19:12;;;;;;;21.05;14.80;;;19.90;99.90;;;;;;5945007;24;20045;-94
2021/09/24 12:21:42;;;;;;;17.00;13.32;;;19.70;99.90;;;;;;5968049;24;20477;-92
2021/09/24 12:24:11;;;;;;;17.33;13.68;;;19.60;99.90;;;;;;5968097;24;20435;-90
2021/09/24 12:27:08;;;;;;;14.95;12.82;;;19.60;99.90;;;;;;5944936;24;20093;-95
2021/09/24 12:29:43;;;;;;;13.27;11.30;;;20.10;99.90;;;;;;5944708;24;20545;-93
2021/09/24 12:32:12;;;;;;;18.00;15.82;;;20.20;99.90;;;;;;5964451;24;20031;-93
2021/09/24 12:34:48;;;;;;;22.63;16.23;;;20.20;99.90;;;;;;5974428;24;20051;-93
2021/09/24 12:37:44;;;;;;;17.52;12.93;;;19.80;99.90;;;;;;5995604;24;20104;-92
2021/09/24 12:40:35;;;;;;;12.15;9.95;;;20.40;99.90;;;;;;5977867;24;20034;-94
2021/09/24 12:43:02;;;;;;;19.20;13.43;;;20.70;99.90;;;;;;5995426;24;20008;-93
2021/09/24 12:45:35;;;;;;;18.92;14.20;;;20.30;99.90;;;;;;5972815;24;20022;-96
2021/09/24 12:48:14;;;;;;;21.83;15.10;;;20.30;99.90;;;;;;5972236;24;20023;-91